Ilias — SW3165 — position and weather

sailwx.info

Track history (hours):
 
Tides and Currents Weather Stations Pressure Air Temp Water Temp Dewpoint Dewpoint Depression Visibility Wind Speed Wind Dir Waves Ship Positions

Ilias

Last reported at 2017-Oct-19 17:13 UTC. Time now 2017-Oct-20 14:29 UTC.
Position N 40°27' E 023°59'.

Length 22 m; draft 1.9 m.

Type: Fishing. MMSI: 239022000.

Date/timePositionNaut miles runAvg speedWind from/ knotsBaromVisibWave heightAir tempDewpointWater temp
2017-Oct-19 17:13N 40°27' E 023°59'1 2.8
2017-Oct-19 16:59N 40°27' E 023°58'2 3.6
2017-Oct-19 16:30N 40°28' E 023°56'2 4.1
2017-Oct-19 16:00N 40°26' E 023°56'1 2.9
2017-Oct-19 15:30N 40°24' E 023°56'1 2.7
2017-Oct-19 15:01N 40°23' E 023°56'0 0.0
2017-Oct-19 14:30N 40°23' E 023°56'0 0.0
2017-Oct-19 14:00N 40°23' E 023°56'0 0.0
2017-Oct-19 13:31N 40°23' E 023°56'0 0.0
2017-Oct-19 13:00N 40°23' E 023°56'0 0.0
2017-Oct-19 12:30N 40°23' E 023°56'0 0.0
2017-Oct-19 12:00N 40°23' E 023°56'0 0.0
2017-Oct-19 11:31N 40°23' E 023°56'0 0.0
2017-Oct-19 11:00N 40°23' E 023°56'0 0.0
2017-Oct-19 10:31N 40°23' E 023°56'0 0.0
2017-Oct-19 10:00N 40°23' E 023°56'0 0.0
2017-Oct-19 09:30N 40°23' E 023°56'0 0.0
2017-Oct-19 09:00N 40°23' E 023°56'0 0.0
2017-Oct-19 08:30N 40°23' E 023°56'0 0.0
2017-Oct-19 08:00N 40°23' E 023°56'0 0.0
2017-Oct-19 07:31N 40°23' E 023°56'0 0.0
2017-Oct-19 07:00N 40°23' E 023°56'0 0.0
2017-Oct-19 06:29N 40°23' E 023°56'0 0.0
2017-Oct-19 06:00N 40°23' E 023°56'0 0.0
2017-Oct-19 05:30N 40°23' E 023°56'0 0.0
2017-Oct-19 05:00N 40°23' E 023°56'4 4.2
2017-Oct-19 04:07N 40°27' E 023°57'0 0.7
2017-Oct-19 04:01N 40°27' E 023°57'0 0.3
2017-Oct-19 03:18N 40°27' E 023°57'0 0.1
2017-Oct-19 02:59N 40°27' E 023°57'0 0.8
2017-Oct-19 02:30N 40°27' E 023°57'0 0.0
2017-Oct-19 02:00N 40°27' E 023°57'0 0.0
2017-Oct-19 01:30N 40°27' E 023°57'0 0.0
2017-Oct-19 01:00N 40°27' E 023°57'0 0.0
2017-Oct-19 00:04N 40°27' E 023°57'0 0.1
2017-Oct-18 23:59N 40°27' E 023°57'0 0.0
2017-Oct-18 23:29N 40°27' E 023°57'0 0.0
2017-Oct-18 23:00N 40°27' E 023°57'0 0.0
2017-Oct-18 22:29N 40°27' E 023°57'1 1.4
2017-Oct-18 22:00N 40°28' E 023°58'0 0.3
2017-Oct-18 21:30N 40°28' E 023°58'0 0.4
2017-Oct-18 20:53N 40°28' E 023°58'10 8.4
2017-Oct-18 19:44N 40°36' E 024°04'0 1.8
2017-Oct-18 19:30N 40°36' E 024°04'0 0.4
2017-Oct-18 19:00N 40°36' E 024°04'0 0.7
2017-Oct-18 18:29N 40°36' E 024°04'0 0.0
2017-Oct-18 16:49N 40°36' E 024°04'0 0.0
2017-Oct-18 04:34N 40°37' E 024°04'0 3.5
2017-Oct-18 04:29N 40°37' E 024°04'0 0.4
2017-Oct-18 03:58N 40°37' E 024°04'0 0.2
2017-Oct-18 03:30N 40°37' E 024°04'0 0.5
2017-Oct-18 02:59N 40°37' E 024°04'0 0.0
2017-Oct-18 02:28N 40°37' E 024°04'0 0.0
2017-Oct-18 01:58N 40°37' E 024°04'0 0.0
2017-Oct-18 01:30N 40°37' E 024°04'0 0.0
2017-Oct-18 01:00N 40°37' E 024°04'0 0.0
2017-Oct-18 00:30N 40°37' E 024°04'0 0.0
2017-Oct-17 23:53N 40°37' E 024°04'0 0.0
2017-Oct-17 23:30N 40°37' E 024°04'0 0.0
2017-Oct-17 22:55N 40°37' E 024°04'0 0.1
2017-Oct-17 22:28N 40°37' E 024°04'0 0.4
2017-Oct-17 22:00N 40°37' E 024°04'0 0.1
2017-Oct-17 21:19N 40°37' E 024°04'0 0.3
2017-Oct-17 20:55N 40°37' E 024°04'0 0.3
2017-Oct-17 20:15N 40°37' E 024°04'0 0.0
2017-Oct-17 20:00N 40°37' E 024°04'0 0.0
2017-Oct-17 19:30N 40°37' E 024°04'0 0.2
2017-Oct-17 19:01N 40°37' E 024°04'1 2.0
2017-Oct-17 18:30N 40°37' E 024°05'3 5.6
2017-Oct-17 18:00N 40°36' E 024°09'0 0.1
2017-Oct-17 17:30N 40°36' E 024°09'0 0.6
2017-Oct-17 17:00N 40°37' E 024°09'0 0.6
2017-Oct-17 16:31N 40°37' E 024°09'1 2.4
2017-Oct-17 16:00N 40°38' E 024°09'2 4.7
2017-Oct-17 15:30N 40°36' E 024°11'510.4
2017-Oct-17 15:01N 40°31' E 024°12'510.0
2017-Oct-17 14:30N 40°26' E 024°14'5 9.7
2017-Oct-17 14:01N 40°22' E 024°17'5 9.3
2017-Oct-17 13:30N 40°18' E 024°20'5 9.2
2017-Oct-17 13:00N 40°14' E 024°23'11 7.3
2017-Oct-17 11:33N 40°04' E 024°17'110.4
2017-Oct-17 11:30N 40°04' E 024°16'510.4
2017-Oct-17 11:00N 40°01' E 024°10'  
2017-Oct-13 09:27N 39°57' E 024°01'4 9.3
2017-Oct-13 09:00N 39°59' E 024°06'5 9.3
2017-Oct-13 08:31N 40°01' E 024°11'5 9.5
2017-Oct-13 08:00N 40°04' E 024°16'5 9.9
2017-Oct-13 07:28N 40°07' E 024°22'4 8.7
2017-Oct-13 07:00N 40°10' E 024°25'40 4.6
2017-Oct-12 22:16N 40°50' E 024°20'1 3.4
2017-Oct-12 22:00N 40°51' E 024°19'0 0.0
2017-Oct-12 21:30N 40°51' E 024°19'2 4.2
2017-Oct-12 21:00N 40°49' E 024°20'510.3
2017-Oct-12 20:30N 40°45' E 024°16'5 9.2
2017-Oct-12 19:58N 40°41' E 024°11'0 0.8
2017-Oct-12 19:24N 40°42' E 024°11'0 0.5
2017-Oct-12 19:00N 40°41' E 024°11'0 0.2
2017-Oct-12 17:16N 40°41' E 024°11'0 0.1
2017-Oct-12 16:51N 40°41' E 024°11'0 0.9
2017-Oct-12 16:29N 40°41' E 024°11'4 5.9
2017-Oct-12 15:46N 40°44' E 024°15'2 8.7
2017-Oct-12 15:30N 40°46' E 024°17'4 8.6
2017-Oct-12 15:00N 40°49' E 024°20'2 3.9
2017-Oct-12 14:30N 40°51' E 024°19'0 0.0
2017-Oct-12 13:58N 40°51' E 024°19'0 0.0
2017-Oct-12 13:28N 40°51' E 024°19'0 0.0
2017-Oct-12 12:59N 40°51' E 024°19'0 0.0
2017-Oct-12 12:30N 40°51' E 024°19'0 0.0
2017-Oct-12 11:53N 40°51' E 024°19'0 0.0
2017-Oct-12 11:30N 40°51' E 024°19'0 0.0
2017-Oct-12 10:55N 40°51' E 024°19'0 0.0
2017-Oct-12 10:27N 40°51' E 024°19'0 0.0
2017-Oct-12 10:00N 40°51' E 024°19'0 0.0
2017-Oct-12 09:30N 40°51' E 024°19'0 0.0
2017-Oct-12 08:31N 40°51' E 024°19'0 0.0
2017-Oct-12 08:23N 40°51' E 024°19'0 0.0
2017-Oct-12 08:00N 40°51' E 024°19'0 0.0
2017-Oct-12 07:30N 40°51' E 024°19'0 0.0
2017-Oct-12 07:00N 40°51' E 024°19'0 0.0
2017-Oct-12 06:30N 40°51' E 024°19'0 0.0
2017-Oct-12 06:00N 40°51' E 024°19'0 0.0
2017-Oct-12 05:30N 40°51' E 024°19'0 0.0
2017-Oct-12 04:58N 40°51' E 024°19'0 0.0
2017-Oct-12 04:29N 40°51' E 024°19'0 0.0
2017-Oct-12 04:00N 40°51' E 024°19'0 0.0
2017-Oct-12 03:30N 40°51' E 024°19'0 0.0
2017-Oct-12 02:58N 40°51' E 024°19'0 0.0
2017-Oct-12 02:30N 40°51' E 024°19'0 0.0
2017-Oct-12 02:00N 40°51' E 024°19'0 0.0
2017-Oct-12 01:30N 40°51' E 024°19'0 0.0
2017-Oct-12 01:00N 40°51' E 024°19'0 0.0
2017-Oct-12 00:30N 40°51' E 024°19'0 0.0
2017-Oct-12 00:00N 40°51' E 024°19'0 0.0
2017-Oct-11 23:30N 40°51' E 024°19'0 0.0
2017-Oct-11 23:00N 40°51' E 024°19'0 0.0
2017-Oct-11 22:30N 40°51' E 024°19'0 0.1
2017-Oct-11 22:00N 40°51' E 024°19'2 4.4
2017-Oct-11 21:30N 40°49' E 024°20'510.1
2017-Oct-11 21:00N 40°45' E 024°17'510.3
2017-Oct-11 20:30N 40°40' E 024°13'3 5.8
2017-Oct-11 20:00N 40°38' E 024°11'0 0.5
2017-Oct-11 19:30N 40°38' E 024°11'1 0.2
2017-Oct-11 17:21N 40°37' E 024°11'0 0.8
2017-Oct-11 16:57N 40°37' E 024°11'15 0.7
2017-Oct-10 18:36N 40°44' E 024°29'1 6.5
2017-Oct-10 18:31N 40°44' E 024°29'1 2.5
2017-Oct-10 18:00N 40°44' E 024°27'4 8.5
2017-Oct-10 17:30N 40°40' E 024°26'2 3.1
2017-Oct-10 17:01N 40°38' E 024°27'2 4.6
2017-Oct-10 16:30N 40°39' E 024°24'3 5.5
2017-Oct-10 16:01N 40°39' E 024°20'2 4.3
2017-Oct-10 15:30N 40°38' E 024°18'510.1
2017-Oct-10 14:59N 40°35' E 024°13'  
Track history (hours):
 
Tides and Currents Weather Stations Pressure Air Temp Water Temp Dewpoint Dewpoint Depression Visibility Wind Speed Wind Dir Waves Ship Positions

Ilias

Last reported at 2017-Oct-19 17:13 UTC. Time now 2017-Oct-20 14:29 UTC.
Position N 40°27' E 023°59'.

Length 22 m; draft 1.9 m.

Type: Fishing. MMSI: 239022000.

Date/timePositionNaut miles runAvg speedWind from/ knotsBaromVisibWave heightAir tempDewpointWater temp
2017-Oct-19 17:13N 40°27' E 023°59'1 2.8
2017-Oct-19 16:59N 40°27' E 023°58'2 3.6
2017-Oct-19 16:30N 40°28' E 023°56'2 4.1
2017-Oct-19 16:00N 40°26' E 023°56'1 2.9
2017-Oct-19 15:30N 40°24' E 023°56'1 2.7
2017-Oct-19 15:01N 40°23' E 023°56'0 0.0
2017-Oct-19 14:30N 40°23' E 023°56'0 0.0
2017-Oct-19 14:00N 40°23' E 023°56'0 0.0
2017-Oct-19 13:31N 40°23' E 023°56'0 0.0
2017-Oct-19 13:00N 40°23' E 023°56'0 0.0
2017-Oct-19 12:30N 40°23' E 023°56'0 0.0
2017-Oct-19 12:00N 40°23' E 023°56'0 0.0
2017-Oct-19 11:31N 40°23' E 023°56'0 0.0
2017-Oct-19 11:00N 40°23' E 023°56'0 0.0
2017-Oct-19 10:31N 40°23' E 023°56'0 0.0
2017-Oct-19 10:00N 40°23' E 023°56'0 0.0
2017-Oct-19 09:30N 40°23' E 023°56'0 0.0
2017-Oct-19 09:00N 40°23' E 023°56'0 0.0
2017-Oct-19 08:30N 40°23' E 023°56'0 0.0
2017-Oct-19 08:00N 40°23' E 023°56'0 0.0
2017-Oct-19 07:31N 40°23' E 023°56'0 0.0
2017-Oct-19 07:00N 40°23' E 023°56'0 0.0
2017-Oct-19 06:29N 40°23' E 023°56'0 0.0
2017-Oct-19 06:00N 40°23' E 023°56'0 0.0
2017-Oct-19 05:30N 40°23' E 023°56'0 0.0
2017-Oct-19 05:00N 40°23' E 023°56'4 4.2
2017-Oct-19 04:07N 40°27' E 023°57'0 0.7
2017-Oct-19 04:01N 40°27' E 023°57'0 0.3
2017-Oct-19 03:18N 40°27' E 023°57'0 0.1
2017-Oct-19 02:59N 40°27' E 023°57'0 0.8
2017-Oct-19 02:30N 40°27' E 023°57'0 0.0
2017-Oct-19 02:00N 40°27' E 023°57'0 0.0
2017-Oct-19 01:30N 40°27' E 023°57'0 0.0
2017-Oct-19 01:00N 40°27' E 023°57'0 0.0
2017-Oct-19 00:04N 40°27' E 023°57'0 0.1
2017-Oct-18 23:59N 40°27' E 023°57'0 0.0
2017-Oct-18 23:29N 40°27' E 023°57'0 0.0
2017-Oct-18 23:00N 40°27' E 023°57'0 0.0
2017-Oct-18 22:29N 40°27' E 023°57'1 1.4
2017-Oct-18 22:00N 40°28' E 023°58'0 0.3
2017-Oct-18 21:30N 40°28' E 023°58'0 0.4
2017-Oct-18 20:53N 40°28' E 023°58'10 8.4
2017-Oct-18 19:44N 40°36' E 024°04'0 1.8
2017-Oct-18 19:30N 40°36' E 024°04'0 0.4
2017-Oct-18 19:00N 40°36' E 024°04'0 0.7
2017-Oct-18 18:29N 40°36' E 024°04'0 0.0
2017-Oct-18 16:49N 40°36' E 024°04'0 0.0
2017-Oct-18 04:34N 40°37' E 024°04'0 3.5
2017-Oct-18 04:29N 40°37' E 024°04'0 0.4
2017-Oct-18 03:58N 40°37' E 024°04'0 0.2
2017-Oct-18 03:30N 40°37' E 024°04'0 0.5
2017-Oct-18 02:59N 40°37' E 024°04'0 0.0
2017-Oct-18 02:28N 40°37' E 024°04'0 0.0
2017-Oct-18 01:58N 40°37' E 024°04'0 0.0
2017-Oct-18 01:30N 40°37' E 024°04'0 0.0
2017-Oct-18 01:00N 40°37' E 024°04'0 0.0
2017-Oct-18 00:30N 40°37' E 024°04'0 0.0
2017-Oct-17 23:53N 40°37' E 024°04'0 0.0
2017-Oct-17 23:30N 40°37' E 024°04'0 0.0
2017-Oct-17 22:55N 40°37' E 024°04'0 0.1
2017-Oct-17 22:28N 40°37' E 024°04'0 0.4
2017-Oct-17 22:00N 40°37' E 024°04'0 0.1
2017-Oct-17 21:19N 40°37' E 024°04'0 0.3
2017-Oct-17 20:55N 40°37' E 024°04'0 0.3
2017-Oct-17 20:15N 40°37' E 024°04'0 0.0
2017-Oct-17 20:00N 40°37' E 024°04'0 0.0
2017-Oct-17 19:30N 40°37' E 024°04'0 0.2
2017-Oct-17 19:01N 40°37' E 024°04'1 2.0
2017-Oct-17 18:30N 40°37' E 024°05'3 5.6
2017-Oct-17 18:00N 40°36' E 024°09'0 0.1
2017-Oct-17 17:30N 40°36' E 024°09'0 0.6
2017-Oct-17 17:00N 40°37' E 024°09'0 0.6
2017-Oct-17 16:31N 40°37' E 024°09'1 2.4
2017-Oct-17 16:00N 40°38' E 024°09'2 4.7
2017-Oct-17 15:30N 40°36' E 024°11'510.4
2017-Oct-17 15:01N 40°31' E 024°12'510.0
2017-Oct-17 14:30N 40°26' E 024°14'5 9.7
2017-Oct-17 14:01N 40°22' E 024°17'5 9.3
2017-Oct-17 13:30N 40°18' E 024°20'5 9.2
2017-Oct-17 13:00N 40°14' E 024°23'11 7.3
2017-Oct-17 11:33N 40°04' E 024°17'110.4
2017-Oct-17 11:30N 40°04' E 024°16'510.4
2017-Oct-17 11:00N 40°01' E 024°10'  
2017-Oct-13 09:27N 39°57' E 024°01'4 9.3
2017-Oct-13 09:00N 39°59' E 024°06'5 9.3
2017-Oct-13 08:31N 40°01' E 024°11'5 9.5
2017-Oct-13 08:00N 40°04' E 024°16'5 9.9
2017-Oct-13 07:28N 40°07' E 024°22'4 8.7
2017-Oct-13 07:00N 40°10' E 024°25'40 4.6
2017-Oct-12 22:16N 40°50' E 024°20'1 3.4
2017-Oct-12 22:00N 40°51' E 024°19'0 0.0
2017-Oct-12 21:30N 40°51' E 024°19'2 4.2
2017-Oct-12 21:00N 40°49' E 024°20'510.3
2017-Oct-12 20:30N 40°45' E 024°16'5 9.2
2017-Oct-12 19:58N 40°41' E 024°11'0 0.8
2017-Oct-12 19:24N 40°42' E 024°11'0 0.5
2017-Oct-12 19:00N 40°41' E 024°11'0 0.2
2017-Oct-12 17:16N 40°41' E 024°11'0 0.1
2017-Oct-12 16:51N 40°41' E 024°11'0 0.9
2017-Oct-12 16:29N 40°41' E 024°11'4 5.9
2017-Oct-12 15:46N 40°44' E 024°15'2 8.7
2017-Oct-12 15:30N 40°46' E 024°17'4 8.6
2017-Oct-12 15:00N 40°49' E 024°20'2 3.9
2017-Oct-12 14:30N 40°51' E 024°19'0 0.0
2017-Oct-12 13:58N 40°51' E 024°19'0 0.0
2017-Oct-12 13:28N 40°51' E 024°19'0 0.0
2017-Oct-12 12:59N 40°51' E 024°19'0 0.0
2017-Oct-12 12:30N 40°51' E 024°19'0 0.0
2017-Oct-12 11:53N 40°51' E 024°19'0 0.0
2017-Oct-12 11:30N 40°51' E 024°19'0 0.0
2017-Oct-12 10:55N 40°51' E 024°19'0 0.0
2017-Oct-12 10:27N 40°51' E 024°19'0 0.0
2017-Oct-12 10:00N 40°51' E 024°19'0 0.0
2017-Oct-12 09:30N 40°51' E 024°19'0 0.0
2017-Oct-12 08:31N 40°51' E 024°19'0 0.0
2017-Oct-12 08:23N 40°51' E 024°19'0 0.0
2017-Oct-12 08:00N 40°51' E 024°19'0 0.0
2017-Oct-12 07:30N 40°51' E 024°19'0 0.0
2017-Oct-12 07:00N 40°51' E 024°19'0 0.0
2017-Oct-12 06:30N 40°51' E 024°19'0 0.0
2017-Oct-12 06:00N 40°51' E 024°19'0 0.0
2017-Oct-12 05:30N 40°51' E 024°19'0 0.0
2017-Oct-12 04:58N 40°51' E 024°19'0 0.0
2017-Oct-12 04:29N 40°51' E 024°19'0 0.0
2017-Oct-12 04:00N 40°51' E 024°19'0 0.0
2017-Oct-12 03:30N 40°51' E 024°19'0 0.0
2017-Oct-12 02:58N 40°51' E 024°19'0 0.0
2017-Oct-12 02:30N 40°51' E 024°19'0 0.0
2017-Oct-12 02:00N 40°51' E 024°19'0 0.0
2017-Oct-12 01:30N 40°51' E 024°19'0 0.0
2017-Oct-12 01:00N 40°51' E 024°19'0 0.0
2017-Oct-12 00:30N 40°51' E 024°19'0 0.0
2017-Oct-12 00:00N 40°51' E 024°19'0 0.0
2017-Oct-11 23:30N 40°51' E 024°19'0 0.0
2017-Oct-11 23:00N 40°51' E 024°19'0 0.0
2017-Oct-11 22:30N 40°51' E 024°19'0 0.1
2017-Oct-11 22:00N 40°51' E 024°19'2 4.4
2017-Oct-11 21:30N 40°49' E 024°20'510.1
2017-Oct-11 21:00N 40°45' E 024°17'510.3
2017-Oct-11 20:30N 40°40' E 024°13'3 5.8
2017-Oct-11 20:00N 40°38' E 024°11'0 0.5
2017-Oct-11 19:30N 40°38' E 024°11'1 0.2
2017-Oct-11 17:21N 40°37' E 024°11'0 0.8
2017-Oct-11 16:57N 40°37' E 024°11'15 0.7
2017-Oct-10 18:36N 40°44' E 024°29'1 6.5
2017-Oct-10 18:31N 40°44' E 024°29'1 2.5
2017-Oct-10 18:00N 40°44' E 024°27'4 8.5
2017-Oct-10 17:30N 40°40' E 024°26'2 3.1
2017-Oct-10 17:01N 40°38' E 024°27'2 4.6
2017-Oct-10 16:30N 40°39' E 024°24'3 5.5
2017-Oct-10 16:01N 40°39' E 024°20'2 4.3
2017-Oct-10 15:30N 40°38' E 024°18'510.1
2017-Oct-10 14:59N 40°35' E 024°13'  

Dump ship's entire track history